createdAt,value
2022-09-23T00:01:11.093Z,5.40
2022-09-23T00:03:41.943Z,6.28
2022-09-23T00:06:14.755Z,6.70
2022-09-23T00:08:42.331Z,7.35
2022-09-23T00:11:21.082Z,7.05
2022-09-23T00:13:50.409Z,7.30
2022-09-23T00:16:21.513Z,7.10
2022-09-23T00:18:50.631Z,6.65
2022-09-23T00:21:19.591Z,6.35
2022-09-23T00:23:47.479Z,5.65
2022-09-23T00:26:16.995Z,6.05
2022-09-23T00:28:44.752Z,5.70
2022-09-23T00:31:15.361Z,5.85
2022-09-23T00:33:43.155Z,5.68
2022-09-23T00:36:15.177Z,5.95
2022-09-23T00:38:44.298Z,5.80
2022-09-23T00:41:17.663Z,5.72
2022-09-23T00:43:51.214Z,5.70
2022-09-23T00:46:24.803Z,5.87
2022-09-23T00:49:00.558Z,5.53
2022-09-23T00:51:34.542Z,6.00
2022-09-23T00:54:02.743Z,7.97
2022-09-23T00:56:30.744Z,10.25
2022-09-23T00:58:58.205Z,10.50
2022-09-23T01:01:25.923Z,11.18
2022-09-23T01:03:54.462Z,10.50
2022-09-23T01:06:21.811Z,9.98
2022-09-23T01:08:49.539Z,13.20
2022-09-23T01:11:54.486Z,15.70
2022-09-23T01:14:59.175Z,15.60
2022-09-23T01:17:39.494Z,17.05
2022-09-23T01:20:31.259Z,17.65
2022-09-23T01:23:52.873Z,17.67
2022-09-23T01:26:39.087Z,14.93
2022-09-23T01:29:25.636Z,14.00
2022-09-23T01:32:04.063Z,11.40
2022-09-23T01:34:35.088Z,10.77
2022-09-23T01:37:26.566Z,10.65
2022-09-23T01:40:04.213Z,10.38
2022-09-23T01:42:39.501Z,10.25
2022-09-23T01:45:32.399Z,9.35
2022-09-23T01:48:36.955Z,9.25
2022-09-23T01:51:12.775Z,8.15
2022-09-23T01:53:50.605Z,8.05
2022-09-23T01:56:25.190Z,8.82
2022-09-23T02:01:37.524Z,8.32
2022-09-23T02:04:25.722Z,7.60
2022-09-23T02:06:56.365Z,6.87
2022-09-23T02:09:26.052Z,7.30
2022-09-23T02:11:58.854Z,7.30
2022-09-23T02:14:36.805Z,6.75
2022-09-23T02:17:09.865Z,7.10
2022-09-23T02:19:44.552Z,6.78
2022-09-23T02:22:17.052Z,7.15
2022-09-23T02:24:45.144Z,6.37
2022-09-23T02:27:20.704Z,7.18
2022-09-23T02:30:11.458Z,6.57
2022-09-23T02:33:05.429Z,6.68
2022-09-23T02:35:37.210Z,5.93
2022-09-23T02:38:17.931Z,5.82
2022-09-23T02:40:52.287Z,5.60
2022-09-23T02:43:35.623Z,5.90
2022-09-23T02:46:05.013Z,5.45
2022-09-23T02:48:41.331Z,6.22
2022-09-23T02:51:09.983Z,6.10
2022-09-23T02:53:37.464Z,6.10
2022-09-23T02:56:16.181Z,6.18
2022-09-23T02:58:44.105Z,5.68
2022-09-23T03:01:18.985Z,5.78
2022-09-23T03:04:14.866Z,5.90
2022-09-23T03:06:53.384Z,5.55
2022-09-23T03:09:31.893Z,5.97
2022-09-23T03:12:15.687Z,5.72
2022-09-23T03:15:06.029Z,5.80
2022-09-23T03:17:48.986Z,6.07
2022-09-23T03:20:29.035Z,5.65
2022-09-23T03:23:00.874Z,5.95
2022-09-23T03:25:31.790Z,6.55
2022-09-23T03:28:00.928Z,7.05
2022-09-23T03:30:29.495Z,7.37
2022-09-23T03:32:58.057Z,8.68
2022-09-23T03:35:27.594Z,8.27
2022-09-23T03:38:24.577Z,8.85
2022-09-23T03:40:54.813Z,9.55
2022-09-23T03:43:22.521Z,10.68
2022-09-23T03:45:54.817Z,11.55
2022-09-23T03:48:22.445Z,11.68
2022-09-23T03:50:49.830Z,9.75
2022-09-23T03:53:21.057Z,11.02
2022-09-23T03:55:48.685Z,9.30
2022-09-23T03:58:16.002Z,8.27
2022-09-23T04:00:45.192Z,8.57
2022-09-23T04:03:12.848Z,10.85
2022-09-23T04:05:40.278Z,12.13
2022-09-23T04:08:07.610Z,11.88
2022-09-23T04:10:35.282Z,11.70
2022-09-23T04:13:02.672Z,10.80
2022-09-23T04:15:30.017Z,10.10
2022-09-23T04:17:57.628Z,10.13
2022-09-23T04:20:26.065Z,9.50
2022-09-23T04:22:53.582Z,10.02
2022-09-23T04:25:21.240Z,10.00
2022-09-23T04:27:48.607Z,10.85
2022-09-23T04:30:15.968Z,10.07
2022-09-23T04:32:43.603Z,10.35
2022-09-23T04:35:10.935Z,10.50
2022-09-23T04:37:38.301Z,10.43
2022-09-23T04:40:06.679Z,9.48
2022-09-23T04:42:34.072Z,10.57
2022-09-23T04:45:01.591Z,10.43
2022-09-23T04:47:31.757Z,9.55
2022-09-23T04:50:00.055Z,9.32
2022-09-23T04:52:27.496Z,9.30
2022-09-23T04:54:55.106Z,10.00
2022-09-23T04:57:23.176Z,9.05
2022-09-23T04:59:50.812Z,8.73
2022-09-23T05:02:18.505Z,9.52
2022-09-23T05:04:45.889Z,9.70
2022-09-23T05:07:13.239Z,9.70
2022-09-23T05:09:41.509Z,10.38
2022-09-23T05:12:08.903Z,10.85
2022-09-23T05:14:36.256Z,10.23
2022-09-23T05:17:03.901Z,9.77
2022-09-23T05:19:31.327Z,11.30
2022-09-23T05:21:58.651Z,10.68
2022-09-23T05:24:26.277Z,11.10
2022-09-23T05:26:54.202Z,10.73
2022-09-23T05:29:21.556Z,11.15
2022-09-23T05:31:49.309Z,11.02
2022-09-23T05:34:18.676Z,10.60
2022-09-23T05:36:46.112Z,9.07
2022-09-23T05:39:13.727Z,10.35
2022-09-23T05:41:42.949Z,10.38
2022-09-23T05:44:10.480Z,9.30
2022-09-23T05:46:38.178Z,9.07
2022-09-23T05:49:06.095Z,10.10
2022-09-23T05:51:35.086Z,9.20
2022-09-23T05:54:04.297Z,9.45
2022-09-23T05:56:32.998Z,9.88
2022-09-23T05:59:01.802Z,8.88
2022-09-23T06:01:35.261Z,8.07
2022-09-23T06:04:04.948Z,7.65
2022-09-23T06:06:35.028Z,7.60
2022-09-23T06:09:03.853Z,8.13
2022-09-23T06:11:32.749Z,6.65
2022-09-23T06:14:01.248Z,6.72
2022-09-23T06:16:31.224Z,5.03
2022-09-23T06:19:05.102Z,5.12
2022-09-23T06:21:35.050Z,4.95
2022-09-23T06:24:03.025Z,5.53
2022-09-23T06:26:33.767Z,5.68
2022-09-23T06:29:04.596Z,5.50
2022-09-23T06:31:33.019Z,5.80
2022-09-23T06:34:12.349Z,5.75
2022-09-23T06:36:45.828Z,5.75
2022-09-23T06:39:15.793Z,5.43
2022-09-23T06:41:44.326Z,6.03
2022-09-23T06:44:15.704Z,6.00
2022-09-23T06:46:44.138Z,7.05
2022-09-23T06:49:12.185Z,6.37
2022-09-23T06:51:40.241Z,6.70
2022-09-23T06:54:08.224Z,6.97
2022-09-23T06:56:39.232Z,6.68
2022-09-23T06:59:09.148Z,6.97
2022-09-23T07:01:36.908Z,7.18
2022-09-23T07:04:04.313Z,6.68
2022-09-23T07:06:31.698Z,6.15
2022-09-23T07:09:00.987Z,5.72
2022-09-23T07:11:28.349Z,6.30
2022-09-23T07:13:55.742Z,5.85
2022-09-23T07:16:23.467Z,5.43
2022-09-23T07:18:52.438Z,5.05
2022-09-23T07:21:19.840Z,4.78
2022-09-23T07:23:51.099Z,4.90
2022-09-23T07:26:19.775Z,5.35
2022-09-23T07:28:47.403Z,4.75
2022-09-23T07:31:25.683Z,4.00
2022-09-23T07:33:57.924Z,4.93
2022-09-23T07:36:27.964Z,4.03
2022-09-23T07:39:02.841Z,5.40
2022-09-23T07:41:32.185Z,4.65
2022-09-23T07:44:00.862Z,4.62
2022-09-23T07:46:32.849Z,5.43
2022-09-23T07:49:02.234Z,5.03
2022-09-23T07:51:36.325Z,4.90
2022-09-23T07:54:10.210Z,5.20
2022-09-23T07:56:40.290Z,4.68
2022-09-23T07:59:11.363Z,5.00
2022-09-23T08:01:42.312Z,4.43
2022-09-23T08:04:18.020Z,4.87
2022-09-23T08:06:50.965Z,4.32
2022-09-23T08:09:20.233Z,3.87
2022-09-23T08:11:47.941Z,4.05
2022-09-23T08:14:17.841Z,4.30
2022-09-23T08:16:46.883Z,3.72
2022-09-23T08:19:15.036Z,3.78
2022-09-23T08:21:43.193Z,3.65
2022-09-23T08:24:16.991Z,4.65
2022-09-23T08:26:45.245Z,5.25
2022-09-23T08:29:14.620Z,4.85
2022-09-23T08:31:42.284Z,5.30
2022-09-23T08:34:10.657Z,6.03
2022-09-23T08:36:39.693Z,5.57
2022-09-23T08:39:07.053Z,5.68
2022-09-23T08:41:52.881Z,5.60
2022-09-23T08:44:43.306Z,5.68
2022-09-23T08:47:19.188Z,5.20
2022-09-23T08:50:00.580Z,5.50
2022-09-23T08:52:36.204Z,5.68
2022-09-23T08:55:04.509Z,5.43
2022-09-23T08:57:34.675Z,5.75
2022-09-23T09:00:02.288Z,4.90
2022-09-23T09:02:30.860Z,5.82
2022-09-23T09:05:03.345Z,5.30
2022-09-23T09:07:37.363Z,5.82
2022-09-23T09:10:26.851Z,5.12
2022-09-23T09:13:01.640Z,5.55
2022-09-23T09:15:29.247Z,5.20
2022-09-23T09:18:14.219Z,5.32
2022-09-23T09:21:28.186Z,5.65
2022-09-23T09:23:59.263Z,4.75
2022-09-23T09:26:33.859Z,5.85
2022-09-23T09:29:17.206Z,5.97
2022-09-23T09:31:51.189Z,5.40
2022-09-23T09:34:28.977Z,5.65
2022-09-23T09:37:08.122Z,5.55
2022-09-23T09:39:36.840Z,6.55
2022-09-23T09:42:07.584Z,5.47
2022-09-23T09:45:03.532Z,6.12
2022-09-23T09:47:33.720Z,5.78
2022-09-23T09:50:11.092Z,5.15
2022-09-23T09:52:43.093Z,5.65
2022-09-23T09:55:14.541Z,6.05
2022-09-23T09:57:55.948Z,5.93
2022-09-23T10:00:32.735Z,5.68
2022-09-23T10:03:26.960Z,6.18
2022-09-23T10:05:57.693Z,5.50
2022-09-23T10:08:28.727Z,5.85
2022-09-23T10:10:58.969Z,5.60
2022-09-23T10:13:29.967Z,5.47
2022-09-23T10:16:04.424Z,5.20
2022-09-23T10:18:38.628Z,5.40
2022-09-23T10:21:18.138Z,5.12
2022-09-23T10:23:55.918Z,5.40
2022-09-23T10:26:55.036Z,4.97
2022-09-23T10:29:48.155Z,4.97
2022-09-23T10:32:36.361Z,4.78
2022-09-23T10:35:07.689Z,5.15
2022-09-23T10:37:40.645Z,5.60
2022-09-23T10:40:39.457Z,5.50
2022-09-23T10:43:39.175Z,4.97
2022-09-23T10:46:34.659Z,4.75
2022-09-23T10:49:28.012Z,4.03
2022-09-23T10:52:12.085Z,3.67
2022-09-23T10:54:49.749Z,4.37
2022-09-23T10:57:40.676Z,3.70
2022-09-23T11:00:51.871Z,4.00
2022-09-23T11:03:50.741Z,4.05
2022-09-23T11:06:36.970Z,3.78
2022-09-23T11:09:17.146Z,4.60
2022-09-23T11:12:12.375Z,4.65
2022-09-23T11:14:55.298Z,4.30
2022-09-23T11:17:43.337Z,4.10
2022-09-23T11:20:37.162Z,3.80
2022-09-23T11:23:22.208Z,4.30
2022-09-23T11:25:56.317Z,3.90
2022-09-23T11:28:53.850Z,4.10
2022-09-23T11:31:43.288Z,4.15
2022-09-23T11:34:52.735Z,3.90
2022-09-23T11:37:29.911Z,3.85
2022-09-23T11:42:33.556Z,4.62
2022-09-23T11:45:15.076Z,4.78
2022-09-23T11:47:48.209Z,4.70
2022-09-23T11:50:27.069Z,4.50
2022-09-23T11:53:03.200Z,4.87
2022-09-23T11:55:35.190Z,4.80
2022-09-23T12:01:07.858Z,4.53
2022-09-23T12:04:00.454Z,4.43
2022-09-23T12:06:43.556Z,6.35
2022-09-23T12:09:30.986Z,5.05
2022-09-23T12:15:14.428Z,6.32
2022-09-23T12:17:54.498Z,4.90
2022-09-23T12:20:37.935Z,4.93
2022-09-23T12:23:16.340Z,4.28
2022-09-23T12:25:56.330Z,5.07
2022-09-23T12:28:30.063Z,4.72
2022-09-23T12:30:59.524Z,4.37
2022-09-23T12:33:29.920Z,3.72
2022-09-23T12:36:06.397Z,3.58
2022-09-23T12:38:34.807Z,3.45
2022-09-23T12:41:08.957Z,3.72
2022-09-23T12:43:36.366Z,3.28
2022-09-23T12:46:21.336Z,3.47
2022-09-23T12:48:58.112Z,3.35
2022-09-23T12:51:36.159Z,3.30
2022-09-23T12:54:03.453Z,2.85
2022-09-23T12:56:36.711Z,4.15
2022-09-23T12:59:31.177Z,3.45
2022-09-23T13:02:28.883Z,2.67
2022-09-23T13:05:25.556Z,3.75
2022-09-23T13:07:59.622Z,2.40
2022-09-23T13:10:29.921Z,2.90
2022-09-23T13:12:57.750Z,3.05
2022-09-23T13:15:34.049Z,2.33
2022-09-23T13:18:54.457Z,2.70
2022-09-23T13:21:43.684Z,2.67
2022-09-23T13:24:20.297Z,2.45
2022-09-23T13:26:50.530Z,2.03
2022-09-23T13:29:28.124Z,2.22
2022-09-23T13:31:57.889Z,2.22
2022-09-23T13:34:31.049Z,2.20
2022-09-23T13:36:58.908Z,1.90
2022-09-23T13:39:28.574Z,1.92
2022-09-23T13:42:00.886Z,1.87
2022-09-23T13:44:28.945Z,6.32
2022-09-23T13:47:00.760Z,2.10
2022-09-23T13:49:35.745Z,2.15
2022-09-23T13:52:03.861Z,1.98
2022-09-23T13:54:37.222Z,2.67
2022-09-23T13:57:04.811Z,2.37
2022-09-23T13:59:42.341Z,1.80
2022-09-23T14:02:16.819Z,1.65
2022-09-23T14:07:16.194Z,2.10
2022-09-23T14:09:46.213Z,2.20
2022-09-23T14:12:14.321Z,2.28
2022-09-23T14:14:42.191Z,2.20
2022-09-23T14:17:12.566Z,2.20
2022-09-23T14:19:42.532Z,2.10
2022-09-23T14:22:29.441Z,2.33
2022-09-23T14:24:57.582Z,2.00
2022-09-23T14:27:36.467Z,1.83
2022-09-23T14:30:04.873Z,2.03
2022-09-23T14:32:32.947Z,2.22
2022-09-23T14:35:00.228Z,2.40
2022-09-23T14:37:50.730Z,2.47
2022-09-23T14:40:22.312Z,2.70
2022-09-23T14:42:52.181Z,3.00
2022-09-23T14:45:21.519Z,2.90
2022-09-23T14:47:51.305Z,3.03
2022-09-23T14:50:37.219Z,4.45
2022-09-23T14:53:17.013Z,6.60
2022-09-23T14:55:45.658Z,5.53
2022-09-23T14:58:16.868Z,3.72
2022-09-23T15:00:59.944Z,3.10
2022-09-23T15:03:28.597Z,3.30
2022-09-23T15:06:06.380Z,3.28
2022-09-23T15:08:36.384Z,3.67
2022-09-23T15:11:07.843Z,11.20
2022-09-23T15:13:46.087Z,14.38
2022-09-23T15:16:15.504Z,6.45
2022-09-23T15:18:44.868Z,18.48
2022-09-23T15:21:15.235Z,6.03
2022-09-23T15:23:55.234Z,4.28
2022-09-23T15:26:45.331Z,3.92
2022-09-23T15:29:12.986Z,3.50
2022-09-23T15:31:40.388Z,3.60
2022-09-23T15:34:10.040Z,3.40
2022-09-23T15:36:38.596Z,2.90
2022-09-23T15:39:08.641Z,2.80
2022-09-23T15:41:35.993Z,3.28
2022-09-23T15:44:14.414Z,2.95
2022-09-23T15:46:46.363Z,3.00
2022-09-23T15:49:28.456Z,2.95
2022-09-23T15:51:59.253Z,3.80
2022-09-23T15:54:28.505Z,3.25
2022-09-23T15:56:58.604Z,3.37
2022-09-23T15:59:25.938Z,3.58
2022-09-23T16:01:54.016Z,5.12
2022-09-23T16:04:21.834Z,5.03
2022-09-23T16:06:49.354Z,5.87
2022-09-23T16:09:16.757Z,5.35
2022-09-23T16:11:49.265Z,6.10
2022-09-23T16:14:17.735Z,5.75
2022-09-23T16:16:47.791Z,5.87
2022-09-23T16:19:16.151Z,6.20
2022-09-23T16:21:44.610Z,6.65
2022-09-23T16:24:15.824Z,5.97
2022-09-23T16:26:45.242Z,6.97
2022-09-23T16:29:13.494Z,8.82
2022-09-23T16:31:41.061Z,9.38
2022-09-23T16:34:08.496Z,8.80
2022-09-23T16:36:42.339Z,9.75
2022-09-23T16:39:12.517Z,8.85
2022-09-23T16:41:40.447Z,8.90
2022-09-23T16:44:09.381Z,9.32
2022-09-23T16:46:36.833Z,11.20
2022-09-23T16:49:04.697Z,10.40
2022-09-23T16:51:38.154Z,10.95
2022-09-23T16:54:10.274Z,10.10
2022-09-23T16:56:40.377Z,10.52
2022-09-23T16:59:08.264Z,11.55
2022-09-23T17:01:54.196Z,11.50
2022-09-23T17:04:22.657Z,10.93
2022-09-23T17:06:51.919Z,10.70
2022-09-23T17:09:21.142Z,10.25
2022-09-23T17:11:58.764Z,9.10
2022-09-23T17:14:26.240Z,9.65
2022-09-23T17:16:53.831Z,9.40
2022-09-23T17:19:21.177Z,9.77
2022-09-23T17:21:48.526Z,9.60
2022-09-23T17:24:16.114Z,10.70
2022-09-23T17:26:50.712Z,10.68
2022-09-23T17:29:20.609Z,10.35
2022-09-23T17:31:48.011Z,10.00
2022-09-23T17:34:16.360Z,11.05
2022-09-23T17:36:43.974Z,10.05
2022-09-23T17:39:11.312Z,9.73
2022-09-23T17:41:39.295Z,10.93
2022-09-23T17:44:08.101Z,11.10
2022-09-23T17:46:35.446Z,10.80
2022-09-23T17:49:04.092Z,11.45
2022-09-23T17:51:31.773Z,14.32
2022-09-23T17:53:59.213Z,18.55
2022-09-23T17:56:27.013Z,20.27
2022-09-23T17:58:54.625Z,18.15
2022-09-23T18:01:24.161Z,15.68
2022-09-23T18:04:09.714Z,12.35
2022-09-23T18:09:07.640Z,13.55
2022-09-23T18:11:36.955Z,16.23
2022-09-23T18:14:11.965Z,20.77
2022-09-23T18:19:11.360Z,23.02
2022-09-23T18:21:40.770Z,22.45
2022-09-23T18:26:59.606Z,19.85
2022-09-23T18:29:27.375Z,20.52
2022-09-23T18:31:54.897Z,17.48
2022-09-23T18:34:23.535Z,20.25
2022-09-23T18:36:51.266Z,22.90
2022-09-23T18:39:18.586Z,24.33
2022-09-23T18:41:46.040Z,18.10
2022-09-23T18:44:13.686Z,14.57
2022-09-23T18:46:41.019Z,15.93
2022-09-23T18:49:27.270Z,13.15
2022-09-23T18:51:56.387Z,13.18
2022-09-23T18:54:24.932Z,11.63
2022-09-23T18:56:52.860Z,9.88
2022-09-23T18:59:24.693Z,7.75
2022-09-23T19:01:55.356Z,9.32
2022-09-23T19:04:25.010Z,8.63
2022-09-23T19:06:53.967Z,10.10
2022-09-23T19:09:21.318Z,8.45
2022-09-23T19:11:52.518Z,9.40
2022-09-23T19:14:20.191Z,9.32
2022-09-23T19:16:49.175Z,10.55
2022-09-23T19:19:17.301Z,11.60
2022-09-23T19:21:44.816Z,11.25
2022-09-23T19:24:15.675Z,11.55
2022-09-23T19:26:46.739Z,10.38
2022-09-23T19:29:16.522Z,9.05
2022-09-23T19:31:44.355Z,8.80
2022-09-23T19:34:17.225Z,9.15
2022-09-23T19:36:46.039Z,8.30
2022-09-23T19:39:24.085Z,7.72
2022-09-23T19:41:52.594Z,7.70
2022-09-23T19:44:20.287Z,7.62
2022-09-23T19:46:53.347Z,8.55
2022-09-23T19:49:25.097Z,8.98
2022-09-23T19:51:55.721Z,9.35
2022-09-23T19:54:26.028Z,8.88
2022-09-23T19:56:53.419Z,7.90
2022-09-23T19:59:20.761Z,8.25
2022-09-23T20:01:48.757Z,7.80
2022-09-23T20:04:17.042Z,7.50
2022-09-23T20:06:45.900Z,7.78
2022-09-23T20:09:13.604Z,8.07
2022-09-23T20:11:43.110Z,7.97
2022-09-23T20:14:11.070Z,7.78
2022-09-23T20:16:38.702Z,7.95
2022-09-23T20:19:06.466Z,8.15
2022-09-23T20:21:34.386Z,8.15
2022-09-23T20:24:04.485Z,8.88
2022-09-23T20:26:51.243Z,8.23
2022-09-23T20:29:18.594Z,9.27
2022-09-23T20:31:46.289Z,9.30
2022-09-23T20:34:13.722Z,8.60
2022-09-23T20:36:41.777Z,7.93
2022-09-23T20:39:10.240Z,7.87
2022-09-23T20:41:39.256Z,7.80
2022-09-23T20:44:13.954Z,7.05
2022-09-23T20:49:16.484Z,6.90
2022-09-23T20:51:44.457Z,6.40
2022-09-23T20:54:12.285Z,6.20
2022-09-23T20:56:39.648Z,6.47
2022-09-23T20:59:07.357Z,6.03
2022-09-23T21:01:36.478Z,5.68
2022-09-23T21:04:05.825Z,5.65
2022-09-23T21:06:34.989Z,5.10
2022-09-23T21:09:02.675Z,4.90
2022-09-23T21:11:30.619Z,4.80
2022-09-23T21:13:59.157Z,4.22
2022-09-23T21:16:26.553Z,5.12
2022-09-23T21:18:54.120Z,5.00
2022-09-23T21:21:22.407Z,4.80
2022-09-23T21:23:50.510Z,4.85
2022-09-23T21:26:23.240Z,4.60
2022-09-23T21:28:52.727Z,5.40
2022-09-23T21:31:27.632Z,5.60
2022-09-23T21:33:56.599Z,5.20
2022-09-23T21:36:24.731Z,5.00
2022-09-23T21:38:52.942Z,5.28
2022-09-23T21:41:20.574Z,5.60
2022-09-23T21:43:49.565Z,5.72
2022-09-23T21:46:21.416Z,5.93
2022-09-23T21:48:53.244Z,4.93
2022-09-23T21:51:24.966Z,5.40
2022-09-23T21:53:54.957Z,5.18
2022-09-23T21:56:27.188Z,5.35
2022-09-23T21:58:55.945Z,5.05
2022-09-23T22:01:25.415Z,5.05
2022-09-23T22:03:55.490Z,5.78
2022-09-23T22:06:26.765Z,7.22
2022-09-23T22:08:59.007Z,7.93
2022-09-23T22:11:47.539Z,7.93
2022-09-23T22:14:17.002Z,7.00
2022-09-23T22:16:44.539Z,7.45
2022-09-23T22:19:13.599Z,6.97
2022-09-23T22:21:43.156Z,7.97
2022-09-23T22:24:11.558Z,6.62
2022-09-23T22:26:41.117Z,6.57
2022-09-23T22:29:32.267Z,6.12
2022-09-23T22:32:19.745Z,6.57
2022-09-23T22:34:50.395Z,5.95
2022-09-23T22:37:21.272Z,5.57
2022-09-23T22:39:48.904Z,5.10
2022-09-23T22:42:16.269Z,4.53
2022-09-23T22:44:43.709Z,4.65
2022-09-23T22:47:11.338Z,3.85
2022-09-23T22:49:38.678Z,3.83
2022-09-23T22:52:08.042Z,4.15
2022-09-23T22:54:35.782Z,4.40
2022-09-23T22:57:07.659Z,3.80
2022-09-23T22:59:35.678Z,3.90
2022-09-23T23:02:03.601Z,4.05
2022-09-23T23:04:31.086Z,3.87
2022-09-23T23:07:02.209Z,3.97
2022-09-23T23:09:29.814Z,4.87
2022-09-23T23:11:57.112Z,4.80
2022-09-23T23:14:25.765Z,4.68
2022-09-23T23:16:53.567Z,4.62
2022-09-23T23:19:20.876Z,4.50
2022-09-23T23:21:49.734Z,4.62
2022-09-23T23:24:22.607Z,4.75
2022-09-23T23:26:51.197Z,5.20
2022-09-23T23:29:20.431Z,4.40
2022-09-23T23:31:48.564Z,4.28
2022-09-23T23:34:17.882Z,4.53
2022-09-23T23:36:46.458Z,4.40
2022-09-23T23:39:14.170Z,4.20
2022-09-23T23:41:41.712Z,4.22
2022-09-23T23:44:11.636Z,3.97
2022-09-23T23:46:39.080Z,4.35
2022-09-23T23:49:06.797Z,4.00
2022-09-23T23:51:34.425Z,4.00
2022-09-23T23:54:01.846Z,3.83
2022-09-23T23:56:30.353Z,3.90
2022-09-23T23:59:00.109Z,4.30
